Sullivan, Indiana
Current Conditions -  °F | °C
As of 12:15 AM on Friday 31 Oct 2014 (Local Time) from KRSV Reporting Station
Light Rain Light Rain  
Wind Chill: 48°   Ceiling: 6000
Heat Index: 48°   Visibility: 10mi
Dew Point: 47°   Wind: 3mph
Humidity: 93%   Direction: 10°N
Pressure: 30.08"   Gusts: NA
Location:  39.1°N, 87.41°W
Report Text: KRSV 310415Z AUTO 01003KT 10SM -RA BKN060 09/08 A3008 RMK AO2 T00910081
Loading
Personal Weather Stations






























Interactive Weather Map
Tropical Storm Tracking
New forecast layout! Learn more

10-Day Weather Forecast

Advertisements
Track Severe Weather on mobile